sensor_id;sensor_type;location;lat;lon;timestamp;P1;durP1;ratioP1;P2;durP2;ratioP2
57899;SDS011;60605;53.716;19.940;2022-11-02T00:01:53;114.80;;;35.90;;
57899;SDS011;60605;53.716;19.940;2022-11-02T00:06:56;124.60;;;42.90;;
57899;SDS011;60605;53.716;19.940;2022-11-02T00:17:02;129.80;;;45.10;;
57899;SDS011;60605;53.716;19.940;2022-11-02T00:27:08;130.70;;;42.20;;
57899;SDS011;60605;53.716;19.940;2022-11-02T00:32:13;116.60;;;36.40;;
57899;SDS011;60605;53.716;19.940;2022-11-02T00:37:17;116.50;;;35.80;;
57899;SDS011;60605;53.716;19.940;2022-11-02T00:42:21;116.50;;;33.50;;
57899;SDS011;60605;53.716;19.940;2022-11-02T00:47:24;115.20;;;35.50;;
57899;SDS011;60605;53.716;19.940;2022-11-02T00:57:30;104.80;;;34.90;;
57899;SDS011;60605;53.716;19.940;2022-11-02T01:02:34;106.50;;;32.50;;
57899;SDS011;60605;53.716;19.940;2022-11-02T01:07:38;80.90;;;28.80;;
57899;SDS011;60605;53.716;19.940;2022-11-02T01:12:41;91.80;;;30.40;;
57899;SDS011;60605;53.716;19.940;2022-11-02T01:17:45;88.50;;;31.70;;
57899;SDS011;60605;53.716;19.940;2022-11-02T01:22:48;78.10;;;29.20;;
57899;SDS011;60605;53.716;19.940;2022-11-02T01:32:54;77.90;;;27.80;;
57899;SDS011;60605;53.716;19.940;2022-11-02T01:43:17;78.00;;;27.60;;
57899;SDS011;60605;53.716;19.940;2022-11-02T01:48:35;71.40;;;27.60;;
57899;SDS011;60605;53.716;19.940;2022-11-02T01:53:42;72.30;;;28.30;;
57899;SDS011;60605;53.716;19.940;2022-11-02T01:58:50;72.30;;;28.40;;
57899;SDS011;60605;53.716;19.940;2022-11-02T02:04:09;66.80;;;28.30;;
57899;SDS011;60605;53.716;19.940;2022-11-02T02:09:14;66.60;;;28.70;;
57899;SDS011;60605;53.716;19.940;2022-11-02T02:14:19;75.80;;;29.10;;
57899;SDS011;60605;53.716;19.940;2022-11-02T02:25:02;69.00;;;29.70;;
57899;SDS011;60605;53.716;19.940;2022-11-02T02:30:09;57.70;;;26.10;;
57899;SDS011;60605;53.716;19.940;2022-11-02T02:35:18;66.10;;;28.20;;
57899;SDS011;60605;53.716;19.940;2022-11-02T02:40:39;61.60;;;28.10;;
57899;SDS011;60605;53.716;19.940;2022-11-02T02:45:54;68.00;;;26.90;;
57899;SDS011;60605;53.716;19.940;2022-11-02T02:51:28;65.20;;;27.30;;
57899;SDS011;60605;53.716;19.940;2022-11-02T02:56:39;55.30;;;25.40;;
57899;SDS011;60605;53.716;19.940;2022-11-02T03:01:45;54.50;;;26.60;;
57899;SDS011;60605;53.716;19.940;2022-11-02T03:06:53;49.00;;;24.10;;
57899;SDS011;60605;53.716;19.940;2022-11-02T03:34:15;50.90;;;23.80;;
57899;SDS011;60605;53.716;19.940;2022-11-02T03:39:49;49.80;;;23.80;;
57899;SDS011;60605;53.716;19.940;2022-11-02T03:44:57;55.00;;;26.00;;
57899;SDS011;60605;53.716;19.940;2022-11-02T03:50:07;54.10;;;26.00;;
57899;SDS011;60605;53.716;19.940;2022-11-02T03:55:19;56.40;;;26.20;;
57899;SDS011;60605;53.716;19.940;2022-11-02T04:00:29;52.90;;;24.60;;
57899;SDS011;60605;53.716;19.940;2022-11-02T04:05:36;54.30;;;24.70;;
57899;SDS011;60605;53.716;19.940;2022-11-02T04:10:40;48.70;;;24.10;;
57899;SDS011;60605;53.716;19.940;2022-11-02T04:21:06;46.50;;;22.80;;
57899;SDS011;60605;53.716;19.940;2022-11-02T04:31:13;39.50;;;23.20;;
57899;SDS011;60605;53.716;19.940;2022-11-02T04:36:16;44.90;;;23.60;;
57899;SDS011;60605;53.716;19.940;2022-11-02T04:41:20;41.30;;;21.00;;
57899;SDS011;60605;53.716;19.940;2022-11-02T04:46:44;39.90;;;21.50;;
57899;SDS011;60605;53.716;19.940;2022-11-02T04:51:47;43.20;;;22.20;;
57899;SDS011;60605;53.716;19.940;2022-11-02T04:56:51;40.20;;;23.60;;
57899;SDS011;60605;53.716;19.940;2022-11-02T05:06:58;41.60;;;20.90;;
57899;SDS011;60605;53.716;19.940;2022-11-02T05:12:03;39.90;;;20.70;;
57899;SDS011;60605;53.716;19.940;2022-11-02T05:17:07;40.40;;;20.90;;
57899;SDS011;60605;53.716;19.940;2022-11-02T05:22:10;42.80;;;20.40;;
57899;SDS011;60605;53.716;19.940;2022-11-02T05:32:17;36.70;;;19.80;;
57899;SDS011;60605;53.716;19.940;2022-11-02T05:37:20;37.90;;;20.50;;
57899;SDS011;60605;53.716;19.940;2022-11-02T05:42:24;35.00;;;18.70;;
57899;SDS011;60605;53.716;19.940;2022-11-02T05:47:28;34.90;;;20.20;;
57899;SDS011;60605;53.716;19.940;2022-11-02T05:52:31;34.80;;;20.70;;
57899;SDS011;60605;53.716;19.940;2022-11-02T05:57:36;33.80;;;20.30;;
57899;SDS011;60605;53.716;19.940;2022-11-02T06:07:43;32.60;;;19.50;;
57899;SDS011;60605;53.716;19.940;2022-11-02T06:12:46;33.80;;;20.40;;
57899;SDS011;60605;53.716;19.940;2022-11-02T06:17:56;32.70;;;20.00;;
57899;SDS011;60605;53.716;19.940;2022-11-02T06:23:00;35.70;;;20.10;;
57899;SDS011;60605;53.716;19.940;2022-11-02T06:28:04;42.80;;;22.80;;
57899;SDS011;60605;53.716;19.940;2022-11-02T06:33:07;47.70;;;21.60;;
57899;SDS011;60605;53.716;19.940;2022-11-02T06:38:11;43.50;;;23.40;;
57899;SDS011;60605;53.716;19.940;2022-11-02T06:43:14;47.40;;;24.10;;
57899;SDS011;60605;53.716;19.940;2022-11-02T06:48:19;47.10;;;24.00;;
57899;SDS011;60605;53.716;19.940;2022-11-02T06:53:22;52.90;;;27.30;;
57899;SDS011;60605;53.716;19.940;2022-11-02T06:58:26;44.00;;;25.30;;
57899;SDS011;60605;53.716;19.940;2022-11-02T07:03:29;40.00;;;24.00;;
57899;SDS011;60605;53.716;19.940;2022-11-02T07:08:33;47.80;;;25.60;;
57899;SDS011;60605;53.716;19.940;2022-11-02T07:18:40;41.40;;;22.60;;
57899;SDS011;60605;53.716;19.940;2022-11-02T07:23:43;35.50;;;20.20;;
57899;SDS011;60605;53.716;19.940;2022-11-02T07:33:49;45.30;;;21.80;;
57899;SDS011;60605;53.716;19.940;2022-11-02T07:38:52;42.70;;;21.70;;
57899;SDS011;60605;53.716;19.940;2022-11-02T07:43:55;32.10;;;18.80;;
57899;SDS011;60605;53.716;19.940;2022-11-02T07:48:59;32.90;;;19.30;;
57899;SDS011;60605;53.716;19.940;2022-11-02T07:54:02;27.90;;;18.00;;
57899;SDS011;60605;53.716;19.940;2022-11-02T07:59:05;27.60;;;17.60;;
57899;SDS011;60605;53.716;19.940;2022-11-02T08:04:11;29.60;;;17.80;;
57899;SDS011;60605;53.716;19.940;2022-11-02T08:09:14;25.60;;;15.60;;
57899;SDS011;60605;53.716;19.940;2022-11-02T08:14:37;22.20;;;14.40;;
57899;SDS011;60605;53.716;19.940;2022-11-02T08:19:41;22.50;;;14.40;;
57899;SDS011;60605;53.716;19.940;2022-11-02T08:24:44;22.70;;;14.80;;
57899;SDS011;60605;53.716;19.940;2022-11-02T08:29:48;24.50;;;15.00;;
57899;SDS011;60605;53.716;19.940;2022-11-02T08:34:51;23.20;;;16.00;;
57899;SDS011;60605;53.716;19.940;2022-11-02T08:39:55;23.80;;;13.60;;
57899;SDS011;60605;53.716;19.940;2022-11-02T08:44:58;25.20;;;15.40;;
57899;SDS011;60605;53.716;19.940;2022-11-02T08:50:01;24.30;;;15.20;;
57899;SDS011;60605;53.716;19.940;2022-11-02T08:55:05;19.10;;;13.10;;
57899;SDS011;60605;53.716;19.940;2022-11-02T09:00:10;22.70;;;13.70;;
57899;SDS011;60605;53.716;19.940;2022-11-02T09:05:14;21.20;;;13.00;;
57899;SDS011;60605;53.716;19.940;2022-11-02T09:10:18;23.30;;;14.00;;
57899;SDS011;60605;53.716;19.940;2022-11-02T09:15:21;27.30;;;15.40;;
57899;SDS011;60605;53.716;19.940;2022-11-02T09:20:25;23.60;;;13.90;;
57899;SDS011;60605;53.716;19.940;2022-11-02T09:25:29;21.80;;;13.90;;
57899;SDS011;60605;53.716;19.940;2022-11-02T09:30:32;21.90;;;14.50;;
57899;SDS011;60605;53.716;19.940;2022-11-02T09:35:37;22.10;;;14.50;;
57899;SDS011;60605;53.716;19.940;2022-11-02T09:46:24;18.80;;;13.80;;
57899;SDS011;60605;53.716;19.940;2022-11-02T09:51:34;25.10;;;15.30;;
57899;SDS011;60605;53.716;19.940;2022-11-02T09:56:40;24.50;;;16.30;;
57899;SDS011;60605;53.716;19.940;2022-11-02T10:12:42;26.20;;;15.80;;
57899;SDS011;60605;53.716;19.940;2022-11-02T10:18:01;26.70;;;17.10;;
57899;SDS011;60605;53.716;19.940;2022-11-02T10:23:07;32.20;;;19.60;;
57899;SDS011;60605;53.716;19.940;2022-11-02T10:28:19;21.70;;;15.20;;
57899;SDS011;60605;53.716;19.940;2022-11-02T10:33:28;26.50;;;15.40;;
57899;SDS011;60605;53.716;19.940;2022-11-02T10:55:26;25.90;;;17.10;;
57899;SDS011;60605;53.716;19.940;2022-11-02T11:00:38;31.70;;;17.10;;
57899;SDS011;60605;53.716;19.940;2022-11-02T11:05:52;23.50;;;15.20;;
57899;SDS011;60605;53.716;19.940;2022-11-02T11:11:36;27.80;;;16.10;;
57899;SDS011;60605;53.716;19.940;2022-11-02T11:16:35;27.40;;;16.80;;
57899;SDS011;60605;53.716;19.940;2022-11-02T11:21:43;24.00;;;16.20;;
57899;SDS011;60605;53.716;19.940;2022-11-02T11:32:17;25.60;;;17.30;;
57899;SDS011;60605;53.716;19.940;2022-11-02T11:37:31;31.20;;;19.10;;
57899;SDS011;60605;53.716;19.940;2022-11-02T11:42:35;32.20;;;17.60;;
57899;SDS011;60605;53.716;19.940;2022-11-02T11:47:39;29.50;;;16.30;;
57899;SDS011;60605;53.716;19.940;2022-11-02T11:52:44;25.00;;;15.00;;
57899;SDS011;60605;53.716;19.940;2022-11-02T11:58:04;28.80;;;15.00;;
57899;SDS011;60605;53.716;19.940;2022-11-02T12:03:15;24.00;;;15.30;;
57899;SDS011;60605;53.716;19.940;2022-11-02T12:24:08;21.90;;;12.50;;
57899;SDS011;60605;53.716;19.940;2022-11-02T12:40:47;23.70;;;13.60;;
57899;SDS011;60605;53.716;19.940;2022-11-02T12:51:23;24.70;;;13.80;;
57899;SDS011;60605;53.716;19.940;2022-11-02T12:56:33;24.20;;;13.30;;
57899;SDS011;60605;53.716;19.940;2022-11-02T13:01:46;24.40;;;14.10;;
57899;SDS011;60605;53.716;19.940;2022-11-02T13:06:57;17.80;;;13.10;;
57899;SDS011;60605;53.716;19.940;2022-11-02T13:12:09;28.10;;;14.50;;
57899;SDS011;60605;53.716;19.940;2022-11-02T13:17:26;22.10;;;14.00;;
57899;SDS011;60605;53.716;19.940;2022-11-02T13:22:34;26.60;;;14.10;;
57899;SDS011;60605;53.716;19.940;2022-11-02T13:28:05;21.80;;;13.60;;
57899;SDS011;60605;53.716;19.940;2022-11-02T13:33:33;25.00;;;15.00;;
57899;SDS011;60605;53.716;19.940;2022-11-02T13:38:55;19.00;;;12.40;;
57899;SDS011;60605;53.716;19.940;2022-11-02T13:49:35;14.30;;;9.20;;
57899;SDS011;60605;53.716;19.940;2022-11-02T13:59:52;12.80;;;10.30;;
57899;SDS011;60605;53.716;19.940;2022-11-02T14:04:55;14.40;;;9.90;;
57899;SDS011;60605;53.716;19.940;2022-11-02T14:10:12;12.70;;;9.80;;
57899;SDS011;60605;53.716;19.940;2022-11-02T14:20:32;12.40;;;10.00;;
57899;SDS011;60605;53.716;19.940;2022-11-02T14:25:52;14.30;;;9.90;;
57899;SDS011;60605;53.716;19.940;2022-11-02T14:41:57;16.60;;;11.80;;
57899;SDS011;60605;53.716;19.940;2022-11-02T14:47:11;17.50;;;11.90;;
57899;SDS011;60605;53.716;19.940;2022-11-02T14:57:24;17.10;;;12.40;;
57899;SDS011;60605;53.716;19.940;2022-11-02T15:02:35;18.30;;;11.90;;
57899;SDS011;60605;53.716;19.940;2022-11-02T15:07:49;20.70;;;14.40;;
57899;SDS011;60605;53.716;19.940;2022-11-02T15:23:31;22.10;;;13.40;;
57899;SDS011;60605;53.716;19.940;2022-11-02T15:28:57;20.00;;;14.60;;
57899;SDS011;60605;53.716;19.940;2022-11-02T15:34:04;26.40;;;17.50;;
57899;SDS011;60605;53.716;19.940;2022-11-02T15:39:19;26.50;;;18.00;;
57899;SDS011;60605;53.716;19.940;2022-11-02T15:44:30;25.90;;;16.00;;
57899;SDS011;60605;53.716;19.940;2022-11-02T15:54:45;20.10;;;14.70;;
57899;SDS011;60605;53.716;19.940;2022-11-02T16:05:26;25.50;;;15.50;;
57899;SDS011;60605;53.716;19.940;2022-11-02T16:10:34;24.40;;;15.90;;
57899;SDS011;60605;53.716;19.940;2022-11-02T16:15:37;24.00;;;16.60;;
57899;SDS011;60605;53.716;19.940;2022-11-02T16:20:44;26.50;;;17.80;;
57899;SDS011;60605;53.716;19.940;2022-11-02T16:25:47;29.50;;;17.10;;
57899;SDS011;60605;53.716;19.940;2022-11-02T16:31:03;31.50;;;17.90;;
57899;SDS011;60605;53.716;19.940;2022-11-02T16:36:23;23.90;;;15.80;;
57899;SDS011;60605;53.716;19.940;2022-11-02T16:41:30;42.70;;;27.50;;
57899;SDS011;60605;53.716;19.940;2022-11-02T16:46:39;26.40;;;15.50;;
57899;SDS011;60605;53.716;19.940;2022-11-02T16:56:58;22.40;;;13.70;;
57899;SDS011;60605;53.716;19.940;2022-11-02T17:02:14;19.20;;;12.30;;
57899;SDS011;60605;53.716;19.940;2022-11-02T17:07:21;20.40;;;13.40;;
57899;SDS011;60605;53.716;19.940;2022-11-02T17:12:36;28.50;;;21.10;;
57899;SDS011;60605;53.716;19.940;2022-11-02T17:17:44;22.30;;;16.30;;
57899;SDS011;60605;53.716;19.940;2022-11-02T17:27:53;22.00;;;11.80;;
57899;SDS011;60605;53.716;19.940;2022-11-02T17:33:00;21.00;;;12.90;;
57899;SDS011;60605;53.716;19.940;2022-11-02T17:38:10;34.00;;;26.10;;
57899;SDS011;60605;53.716;19.940;2022-11-02T17:43:15;62.50;;;45.10;;
57899;SDS011;60605;53.716;19.940;2022-11-02T17:48:19;41.60;;;28.00;;
57899;SDS011;60605;53.716;19.940;2022-11-02T17:53:22;33.40;;;25.40;;
57899;SDS011;60605;53.716;19.940;2022-11-02T17:58:27;48.70;;;32.30;;
57899;SDS011;60605;53.716;19.940;2022-11-02T18:03:31;30.30;;;18.30;;
57899;SDS011;60605;53.716;19.940;2022-11-02T18:08:35;24.20;;;14.60;;
57899;SDS011;60605;53.716;19.940;2022-11-02T18:13:59;84.40;;;41.70;;
57899;SDS011;60605;53.716;19.940;2022-11-02T18:19:05;57.70;;;30.50;;
57899;SDS011;60605;53.716;19.940;2022-11-02T18:24:09;124.80;;;54.30;;
57899;SDS011;60605;53.716;19.940;2022-11-02T18:29:13;73.10;;;37.90;;
57899;SDS011;60605;53.716;19.940;2022-11-02T18:34:17;67.10;;;39.20;;
57899;SDS011;60605;53.716;19.940;2022-11-02T18:39:21;43.70;;;29.10;;
57899;SDS011;60605;53.716;19.940;2022-11-02T18:44:24;22.60;;;17.00;;
57899;SDS011;60605;53.716;19.940;2022-11-02T18:49:27;24.20;;;17.60;;
57899;SDS011;60605;53.716;19.940;2022-11-02T18:54:31;36.40;;;21.70;;
57899;SDS011;60605;53.716;19.940;2022-11-02T18:59:35;46.80;;;22.90;;
57899;SDS011;60605;53.716;19.940;2022-11-02T19:04:39;70.10;;;28.80;;
57899;SDS011;60605;53.716;19.940;2022-11-02T19:09:42;23.30;;;15.20;;
57899;SDS011;60605;53.716;19.940;2022-11-02T19:14:46;20.90;;;12.20;;
57899;SDS011;60605;53.716;19.940;2022-11-02T19:19:56;21.70;;;13.80;;
57899;SDS011;60605;53.716;19.940;2022-11-02T19:24:59;31.00;;;18.10;;
57899;SDS011;60605;53.716;19.940;2022-11-02T19:30:06;34.50;;;21.80;;
57899;SDS011;60605;53.716;19.940;2022-11-02T19:35:11;36.40;;;25.80;;
57899;SDS011;60605;53.716;19.940;2022-11-02T19:40:15;21.40;;;14.40;;
57899;SDS011;60605;53.716;19.940;2022-11-02T19:45:20;27.90;;;18.80;;
57899;SDS011;60605;53.716;19.940;2022-11-02T19:50:24;23.50;;;13.50;;
57899;SDS011;60605;53.716;19.940;2022-11-02T19:55:27;16.40;;;10.30;;
57899;SDS011;60605;53.716;19.940;2022-11-02T20:00:31;22.20;;;10.50;;
57899;SDS011;60605;53.716;19.940;2022-11-02T20:05:35;21.90;;;12.20;;
57899;SDS011;60605;53.716;19.940;2022-11-02T20:10:38;23.50;;;10.40;;
57899;SDS011;60605;53.716;19.940;2022-11-02T20:15:42;31.30;;;16.10;;
57899;SDS011;60605;53.716;19.940;2022-11-02T20:20:47;31.10;;;17.10;;
57899;SDS011;60605;53.716;19.940;2022-11-02T20:25:50;29.90;;;18.00;;
57899;SDS011;60605;53.716;19.940;2022-11-02T20:30:54;57.20;;;31.60;;
57899;SDS011;60605;53.716;19.940;2022-11-02T20:36:00;28.70;;;15.10;;
57899;SDS011;60605;53.716;19.940;2022-11-02T20:41:08;22.90;;;15.60;;
57899;SDS011;60605;53.716;19.940;2022-11-02T20:46:17;28.10;;;17.00;;
57899;SDS011;60605;53.716;19.940;2022-11-02T20:51:44;30.20;;;15.80;;
57899;SDS011;60605;53.716;19.940;2022-11-02T20:56:48;25.70;;;11.80;;
57899;SDS011;60605;53.716;19.940;2022-11-02T21:01:53;19.90;;;10.40;;
57899;SDS011;60605;53.716;19.940;2022-11-02T21:06:57;16.90;;;10.80;;
57899;SDS011;60605;53.716;19.940;2022-11-02T21:12:00;25.20;;;11.80;;
57899;SDS011;60605;53.716;19.940;2022-11-02T21:17:23;22.70;;;12.90;;
57899;SDS011;60605;53.716;19.940;2022-11-02T21:22:26;18.10;;;10.50;;
57899;SDS011;60605;53.716;19.940;2022-11-02T21:32:33;24.20;;;13.10;;
57899;SDS011;60605;53.716;19.940;2022-11-02T21:37:37;21.60;;;11.10;;
57899;SDS011;60605;53.716;19.940;2022-11-02T21:42:40;23.70;;;11.00;;
57899;SDS011;60605;53.716;19.940;2022-11-02T21:47:44;16.00;;;9.10;;
57899;SDS011;60605;53.716;19.940;2022-11-02T21:52:47;20.90;;;10.20;;
57899;SDS011;60605;53.716;19.940;2022-11-02T22:02:54;18.80;;;8.00;;
57899;SDS011;60605;53.716;19.940;2022-11-02T22:07:57;17.00;;;8.80;;
57899;SDS011;60605;53.716;19.940;2022-11-02T22:13:19;10.00;;;6.60;;
57899;SDS011;60605;53.716;19.940;2022-11-02T22:18:34;11.70;;;6.10;;
57899;SDS011;60605;53.716;19.940;2022-11-02T22:28:41;9.50;;;4.60;;
57899;SDS011;60605;53.716;19.940;2022-11-02T22:33:47;10.50;;;4.90;;
57899;SDS011;60605;53.716;19.940;2022-11-02T22:38:53;8.70;;;4.60;;
57899;SDS011;60605;53.716;19.940;2022-11-02T22:43:58;9.80;;;5.00;;
57899;SDS011;60605;53.716;19.940;2022-11-02T22:49:07;11.10;;;4.30;;
57899;SDS011;60605;53.716;19.940;2022-11-02T22:54:13;6.20;;;4.20;;
57899;SDS011;60605;53.716;19.940;2022-11-02T22:59:18;8.70;;;4.30;;
57899;SDS011;60605;53.716;19.940;2022-11-02T23:04:22;11.30;;;4.40;;
57899;SDS011;60605;53.716;19.940;2022-11-02T23:14:29;9.50;;;4.20;;
57899;SDS011;60605;53.716;19.940;2022-11-02T23:19:32;8.10;;;4.50;;
57899;SDS011;60605;53.716;19.940;2022-11-02T23:24:38;13.40;;;5.50;;
57899;SDS011;60605;53.716;19.940;2022-11-02T23:30:03;15.80;;;7.00;;
57899;SDS011;60605;53.716;19.940;2022-11-02T23:35:25;9.70;;;5.50;;
57899;SDS011;60605;53.716;19.940;2022-11-02T23:40:52;14.10;;;5.10;;
57899;SDS011;60605;53.716;19.940;2022-11-02T23:45:56;6.60;;;4.70;;
57899;SDS011;60605;53.716;19.940;2022-11-02T23:51:00;8.80;;;4.30;;
57899;SDS011;60605;53.716;19.940;2022-11-02T23:56:22;9.90;;;4.10;;
